sensor_id;sensor_type;location;lat;lon;timestamp;temperature;humidity
21540;DHT22;10931;52.164;5.518;2024-01-30T00:02:06;9.90;97.10
21540;DHT22;10931;52.164;5.518;2024-01-30T00:07:01;10.00;97.10
21540;DHT22;10931;52.164;5.518;2024-01-30T00:09:27;10.20;97.10
21540;DHT22;10931;52.164;5.518;2024-01-30T00:11:56;9.90;97.10
21540;DHT22;10931;52.164;5.518;2024-01-30T00:16:48;10.10;97.20
21540;DHT22;10931;52.164;5.518;2024-01-30T00:19:19;9.90;97.20
21540;DHT22;10931;52.164;5.518;2024-01-30T00:21:45;10.20;97.30
21540;DHT22;10931;52.164;5.518;2024-01-30T00:26:37;9.90;97.40
21540;DHT22;10931;52.164;5.518;2024-01-30T00:29:03;10.20;97.30
21540;DHT22;10931;52.164;5.518;2024-01-30T00:31:28;9.50;97.10
21540;DHT22;10931;52.164;5.518;2024-01-30T00:33:54;9.80;97.20
21540;DHT22;10931;52.164;5.518;2024-01-30T00:36:23;9.50;97.20
21540;DHT22;10931;52.164;5.518;2024-01-30T00:38:55;9.80;97.00
21540;DHT22;10931;52.164;5.518;2024-01-30T00:41:22;10.10;97.40
21540;DHT22;10931;52.164;5.518;2024-01-30T00:46:17;10.00;97.20
21540;DHT22;10931;52.164;5.518;2024-01-30T00:51:09;9.90;97.40
21540;DHT22;10931;52.164;5.518;2024-01-30T00:56:00;9.70;97.20
21540;DHT22;10931;52.164;5.518;2024-01-30T00:58:26;9.90;97.10
21540;DHT22;10931;52.164;5.518;2024-01-30T01:03:18;9.40;97.20
21540;DHT22;10931;52.164;5.518;2024-01-30T01:05:49;9.70;97.20
21540;DHT22;10931;52.164;5.518;2024-01-30T01:08:14;10.90;97.50
21540;DHT22;10931;52.164;5.518;2024-01-30T01:18:01;12.30;91.10
21540;DHT22;10931;52.164;5.518;2024-01-30T01:25:19;9.90;97.40
21540;DHT22;10931;52.164;5.518;2024-01-30T01:27:45;9.50;97.20
21540;DHT22;10931;52.164;5.518;2024-01-30T01:30:19;9.40;97.40
21540;DHT22;10931;52.164;5.518;2024-01-30T01:32:50;9.40;89.20
21540;DHT22;10931;52.164;5.518;2024-01-30T01:35:24;9.30;97.20
21540;DHT22;10931;52.164;5.518;2024-01-30T01:37:53;9.30;97.20
21540;DHT22;10931;52.164;5.518;2024-01-30T01:40:24;9.40;89.80
21540;DHT22;10931;52.164;5.518;2024-01-30T01:42:54;9.10;91.20
21540;DHT22;10931;52.164;5.518;2024-01-30T01:45:20;9.30;97.50
21540;DHT22;10931;52.164;5.518;2024-01-30T01:47:50;9.70;97.10
21540;DHT22;10931;52.164;5.518;2024-01-30T01:50:18;9.50;97.30
21540;DHT22;10931;52.164;5.518;2024-01-30T01:52:46;8.90;97.30
21540;DHT22;10931;52.164;5.518;2024-01-30T01:55:13;9.10;97.20
21540;DHT22;10931;52.164;5.518;2024-01-30T01:57:40;9.30;97.40
21540;DHT22;10931;52.164;5.518;2024-01-30T02:00:08;9.40;97.40
21540;DHT22;10931;52.164;5.518;2024-01-30T02:02:36;9.20;89.80
21540;DHT22;10931;52.164;5.518;2024-01-30T02:05:03;9.20;89.30
21540;DHT22;10931;52.164;5.518;2024-01-30T02:09:55;9.20;97.50
21540;DHT22;10931;52.164;5.518;2024-01-30T02:12:21;9.00;97.40
21540;DHT22;10931;52.164;5.518;2024-01-30T02:17:14;8.90;97.10
21540;DHT22;10931;52.164;5.518;2024-01-30T02:19:40;8.70;97.30
21540;DHT22;10931;52.164;5.518;2024-01-30T02:24:32;9.40;97.50
21540;DHT22;10931;52.164;5.518;2024-01-30T02:26:57;9.00;97.20
21540;DHT22;10931;52.164;5.518;2024-01-30T02:29:23;9.10;97.50
21540;DHT22;10931;52.164;5.518;2024-01-30T02:36:44;9.20;97.30
21540;DHT22;10931;52.164;5.518;2024-01-30T02:39:16;8.80;97.40
21540;DHT22;10931;52.164;5.518;2024-01-30T02:41:41;8.80;97.50
21540;DHT22;10931;52.164;5.518;2024-01-30T02:44:13;8.60;96.70
21540;DHT22;10931;52.164;5.518;2024-01-30T02:51:30;9.20;97.60
21540;DHT22;10931;52.164;5.518;2024-01-30T02:56:22;9.00;97.50
21540;DHT22;10931;52.164;5.518;2024-01-30T03:03:40;9.00;97.50
21540;DHT22;10931;52.164;5.518;2024-01-30T03:06:06;8.90;97.40
21540;DHT22;10931;52.164;5.518;2024-01-30T03:13:26;9.30;97.50
21540;DHT22;10931;52.164;5.518;2024-01-30T03:15:51;8.80;95.60
21540;DHT22;10931;52.164;5.518;2024-01-30T03:23:10;8.80;97.40
21540;DHT22;10931;52.164;5.518;2024-01-30T03:25:35;8.70;97.40
21540;DHT22;10931;52.164;5.518;2024-01-30T03:28:01;9.20;97.60
21540;DHT22;10931;52.164;5.518;2024-01-30T03:30:27;8.60;97.50
21540;DHT22;10931;52.164;5.518;2024-01-30T03:32:52;9.20;97.50
21540;DHT22;10931;52.164;5.518;2024-01-30T03:35:19;8.90;97.40
21540;DHT22;10931;52.164;5.518;2024-01-30T03:37:47;8.90;89.70
21540;DHT22;10931;52.164;5.518;2024-01-30T03:40:13;8.90;97.60
21540;DHT22;10931;52.164;5.518;2024-01-30T03:42:38;8.60;97.50
21540;DHT22;10931;52.164;5.518;2024-01-30T03:45:04;8.60;97.30
21540;DHT22;10931;52.164;5.518;2024-01-30T03:47:30;9.00;97.40
21540;DHT22;10931;52.164;5.518;2024-01-30T03:52:22;9.30;97.50
21540;DHT22;10931;52.164;5.518;2024-01-30T03:54:48;9.00;97.30
21540;DHT22;10931;52.164;5.518;2024-01-30T03:57:13;9.20;97.50
21540;DHT22;10931;52.164;5.518;2024-01-30T03:59:42;8.60;97.50
21540;DHT22;10931;52.164;5.518;2024-01-30T04:04:36;8.80;97.40
21540;DHT22;10931;52.164;5.518;2024-01-30T04:09:28;8.90;97.50
21540;DHT22;10931;52.164;5.518;2024-01-30T04:11:54;9.20;97.50
21540;DHT22;10931;52.164;5.518;2024-01-30T04:14:19;8.70;97.40
21540;DHT22;10931;52.164;5.518;2024-01-30T04:16:45;8.70;97.30
21540;DHT22;10931;52.164;5.518;2024-01-30T04:19:11;8.40;92.40
21540;DHT22;10931;52.164;5.518;2024-01-30T04:21:37;6.60;92.50
21540;DHT22;10931;52.164;5.518;2024-01-30T04:24:02;9.00;97.40
21540;DHT22;10931;52.164;5.518;2024-01-30T04:28:54;8.90;97.60
21540;DHT22;10931;52.164;5.518;2024-01-30T04:31:20;8.90;97.40
21540;DHT22;10931;52.164;5.518;2024-01-30T04:33:45;8.70;97.20
21540;DHT22;10931;52.164;5.518;2024-01-30T04:36:11;9.00;97.60
21540;DHT22;10931;52.164;5.518;2024-01-30T04:38:38;9.10;90.00
21540;DHT22;10931;52.164;5.518;2024-01-30T04:41:05;8.90;97.40
21540;DHT22;10931;52.164;5.518;2024-01-30T04:43:30;9.20;97.50
21540;DHT22;10931;52.164;5.518;2024-01-30T04:45:56;9.00;97.50
21540;DHT22;10931;52.164;5.518;2024-01-30T04:48:22;9.00;97.70
21540;DHT22;10931;52.164;5.518;2024-01-30T04:50:47;9.50;97.50
21540;DHT22;10931;52.164;5.518;2024-01-30T04:53:13;9.60;97.80
21540;DHT22;10931;52.164;5.518;2024-01-30T04:55:39;9.70;97.70
21540;DHT22;10931;52.164;5.518;2024-01-30T04:58:07;8.80;92.20
21540;DHT22;10931;52.164;5.518;2024-01-30T05:00:33;8.80;97.50
21540;DHT22;10931;52.164;5.518;2024-01-30T05:02:58;9.10;97.40
21540;DHT22;10931;52.164;5.518;2024-01-30T05:05:24;9.80;97.70
21540;DHT22;10931;52.164;5.518;2024-01-30T05:10:16;9.40;97.70
21540;DHT22;10931;52.164;5.518;2024-01-30T05:12:44;9.10;97.50
21540;DHT22;10931;52.164;5.518;2024-01-30T05:15:10;8.90;97.40
21540;DHT22;10931;52.164;5.518;2024-01-30T05:17:35;7.00;91.30
21540;DHT22;10931;52.164;5.518;2024-01-30T05:20:04;9.40;97.70
21540;DHT22;10931;52.164;5.518;2024-01-30T05:22:30;9.40;97.50
21540;DHT22;10931;52.164;5.518;2024-01-30T05:24:56;9.10;97.50
21540;DHT22;10931;52.164;5.518;2024-01-30T05:27:21;9.40;97.50
21540;DHT22;10931;52.164;5.518;2024-01-30T05:29:47;9.40;91.80
21540;DHT22;10931;52.164;5.518;2024-01-30T05:32:13;8.90;97.60
21540;DHT22;10931;52.164;5.518;2024-01-30T05:37:05;9.10;97.50
21540;DHT22;10931;52.164;5.518;2024-01-30T05:41:58;9.30;97.40
21540;DHT22;10931;52.164;5.518;2024-01-30T05:44:24;9.90;98.10
21540;DHT22;10931;52.164;5.518;2024-01-30T05:46:52;9.50;97.50
21540;DHT22;10931;52.164;5.518;2024-01-30T05:49:18;9.60;97.70
21540;DHT22;10931;52.164;5.518;2024-01-30T05:51:44;9.10;98.00
21540;DHT22;10931;52.164;5.518;2024-01-30T05:54:12;9.70;98.20
21540;DHT22;10931;52.164;5.518;2024-01-30T05:56:38;9.10;97.70
21540;DHT22;10931;52.164;5.518;2024-01-30T05:59:04;10.00;93.00
21540;DHT22;10931;52.164;5.518;2024-01-30T06:01:32;9.50;97.40
21540;DHT22;10931;52.164;5.518;2024-01-30T06:03:58;9.60;92.30
21540;DHT22;10931;52.164;5.518;2024-01-30T06:06:24;9.80;92.50
21540;DHT22;10931;52.164;5.518;2024-01-30T06:08:57;12.50;92.70
21540;DHT22;10931;52.164;5.518;2024-01-30T06:11:23;9.60;98.20
21540;DHT22;10931;52.164;5.518;2024-01-30T06:13:48;9.40;97.70
21540;DHT22;10931;52.164;5.518;2024-01-30T06:16:14;9.70;92.00
21540;DHT22;10931;52.164;5.518;2024-01-30T06:18:40;11.10;92.30
21540;DHT22;10931;52.164;5.518;2024-01-30T06:21:09;9.30;97.50
21540;DHT22;10931;52.164;5.518;2024-01-30T06:23:34;9.70;93.10
21540;DHT22;10931;52.164;5.518;2024-01-30T06:26:00;7.20;91.20
21540;DHT22;10931;52.164;5.518;2024-01-30T06:28:26;10.10;92.50
21540;DHT22;10931;52.164;5.518;2024-01-30T06:30:51;9.90;93.20
21540;DHT22;10931;52.164;5.518;2024-01-30T06:33:17;9.60;92.10
21540;DHT22;10931;52.164;5.518;2024-01-30T06:35:45;11.10;92.50
21540;DHT22;10931;52.164;5.518;2024-01-30T06:38:11;9.60;92.90
21540;DHT22;10931;52.164;5.518;2024-01-30T06:40:41;9.90;93.70
21540;DHT22;10931;52.164;5.518;2024-01-30T06:43:19;9.70;97.90
21540;DHT22;10931;52.164;5.518;2024-01-30T06:45:52;9.70;97.80
21540;DHT22;10931;52.164;5.518;2024-01-30T06:48:18;12.20;93.40
21540;DHT22;10931;52.164;5.518;2024-01-30T06:50:45;9.60;97.70
21540;DHT22;10931;52.164;5.518;2024-01-30T06:53:11;10.00;92.60
21540;DHT22;10931;52.164;5.518;2024-01-30T06:55:43;10.20;93.10
21540;DHT22;10931;52.164;5.518;2024-01-30T06:58:12;12.20;91.10
21540;DHT22;10931;52.164;5.518;2024-01-30T07:00:37;9.80;97.60
21540;DHT22;10931;52.164;5.518;2024-01-30T07:03:03;11.30;93.20
21540;DHT22;10931;52.164;5.518;2024-01-30T07:05:32;9.70;97.90
21540;DHT22;10931;52.164;5.518;2024-01-30T07:08:07;12.00;91.10
21540;DHT22;10931;52.164;5.518;2024-01-30T07:10:35;9.80;98.00
21540;DHT22;10931;52.164;5.518;2024-01-30T07:13:03;10.30;97.80
21540;DHT22;10931;52.164;5.518;2024-01-30T07:15:30;10.30;91.70
21540;DHT22;10931;52.164;5.518;2024-01-30T07:18:01;9.90;92.80
21540;DHT22;10931;52.164;5.518;2024-01-30T07:20:27;10.10;91.50
21540;DHT22;10931;52.164;5.518;2024-01-30T07:22:53;9.50;98.00
21540;DHT22;10931;52.164;5.518;2024-01-30T07:25:21;10.00;97.90
21540;DHT22;10931;52.164;5.518;2024-01-30T07:27:47;13.60;94.20
21540;DHT22;10931;52.164;5.518;2024-01-30T07:30:13;12.00;93.20
21540;DHT22;10931;52.164;5.518;2024-01-30T07:32:38;10.20;92.50
21540;DHT22;10931;52.164;5.518;2024-01-30T07:35:07;10.10;97.90
21540;DHT22;10931;52.164;5.518;2024-01-30T07:37:32;9.90;97.90
21540;DHT22;10931;52.164;5.518;2024-01-30T07:40:01;10.00;91.80
21540;DHT22;10931;52.164;5.518;2024-01-30T07:42:27;12.10;92.10
21540;DHT22;10931;52.164;5.518;2024-01-30T07:44:53;10.40;93.30
21540;DHT22;10931;52.164;5.518;2024-01-30T07:47:19;10.50;92.40
21540;DHT22;10931;52.164;5.518;2024-01-30T07:49:47;10.50;92.80
21540;DHT22;10931;52.164;5.518;2024-01-30T07:52:13;10.20;92.00
21540;DHT22;10931;52.164;5.518;2024-01-30T07:54:48;12.50;92.90
21540;DHT22;10931;52.164;5.518;2024-01-30T07:57:17;9.40;93.30
21540;DHT22;10931;52.164;5.518;2024-01-30T07:59:43;9.80;92.10
21540;DHT22;10931;52.164;5.518;2024-01-30T08:02:13;9.50;90.70
21540;DHT22;10931;52.164;5.518;2024-01-30T08:04:38;10.30;92.70
21540;DHT22;10931;52.164;5.518;2024-01-30T08:07:04;11.70;92.80
21540;DHT22;10931;52.164;5.518;2024-01-30T08:09:30;10.30;98.10
21540;DHT22;10931;52.164;5.518;2024-01-30T08:12:07;12.30;93.10
21540;DHT22;10931;52.164;5.518;2024-01-30T08:14:32;11.00;98.20
21540;DHT22;10931;52.164;5.518;2024-01-30T08:16:58;10.30;97.90
21540;DHT22;10931;52.164;5.518;2024-01-30T08:19:24;12.30;92.90
21540;DHT22;10931;52.164;5.518;2024-01-30T08:21:49;10.80;92.90
21540;DHT22;10931;52.164;5.518;2024-01-30T08:24:25;10.60;98.00
21540;DHT22;10931;52.164;5.518;2024-01-30T08:26:54;11.20;92.90
21540;DHT22;10931;52.164;5.518;2024-01-30T08:29:19;10.90;92.10
21540;DHT22;10931;52.164;5.518;2024-01-30T08:31:45;11.00;92.50
21540;DHT22;10931;52.164;5.518;2024-01-30T08:34:11;11.60;92.90
21540;DHT22;10931;52.164;5.518;2024-01-30T08:36:37;11.00;93.40
21540;DHT22;10931;52.164;5.518;2024-01-30T08:39:03;10.70;91.80
21540;DHT22;10931;52.164;5.518;2024-01-30T08:41:30;10.60;93.00
21540;DHT22;10931;52.164;5.518;2024-01-30T08:43:56;10.90;93.30
21540;DHT22;10931;52.164;5.518;2024-01-30T08:46:22;10.70;92.70
21540;DHT22;10931;52.164;5.518;2024-01-30T08:48:50;13.30;93.10
21540;DHT22;10931;52.164;5.518;2024-01-30T08:51:16;13.50;92.20
21540;DHT22;10931;52.164;5.518;2024-01-30T08:53:51;12.40;92.70
21540;DHT22;10931;52.164;5.518;2024-01-30T08:56:19;10.70;92.70
21540;DHT22;10931;52.164;5.518;2024-01-30T08:58:45;12.50;92.60
21540;DHT22;10931;52.164;5.518;2024-01-30T09:01:13;10.90;93.30
21540;DHT22;10931;52.164;5.518;2024-01-30T09:03:42;11.80;92.20
21540;DHT22;10931;52.164;5.518;2024-01-30T09:06:12;11.30;93.00
21540;DHT22;10931;52.164;5.518;2024-01-30T09:08:38;11.10;91.20
21540;DHT22;10931;52.164;5.518;2024-01-30T09:11:12;11.10;92.40
21540;DHT22;10931;52.164;5.518;2024-01-30T09:13:40;11.30;91.20
21540;DHT22;10931;52.164;5.518;2024-01-30T09:16:06;11.40;92.30
21540;DHT22;10931;52.164;5.518;2024-01-30T09:18:50;11.20;91.70
21540;DHT22;10931;52.164;5.518;2024-01-30T09:21:18;13.50;93.50
21540;DHT22;10931;52.164;5.518;2024-01-30T09:23:44;11.10;92.60
21540;DHT22;10931;52.164;5.518;2024-01-30T09:26:10;12.40;93.20
21540;DHT22;10931;52.164;5.518;2024-01-30T09:28:42;8.90;92.80
21540;DHT22;10931;52.164;5.518;2024-01-30T09:31:19;11.40;92.60
21540;DHT22;10931;52.164;5.518;2024-01-30T09:33:50;8.70;90.90
21540;DHT22;10931;52.164;5.518;2024-01-30T09:36:25;11.50;93.70
21540;DHT22;10931;52.164;5.518;2024-01-30T09:39:01;14.90;94.80
21540;DHT22;10931;52.164;5.518;2024-01-30T09:41:32;12.10;92.60
21540;DHT22;10931;52.164;5.518;2024-01-30T09:44:21;11.60;92.30
21540;DHT22;10931;52.164;5.518;2024-01-30T09:46:53;12.60;92.00
21540;DHT22;10931;52.164;5.518;2024-01-30T09:49:30;13.80;93.30
21540;DHT22;10931;52.164;5.518;2024-01-30T09:52:09;14.20;92.30
21540;DHT22;10931;52.164;5.518;2024-01-30T09:54:41;12.00;92.30
21540;DHT22;10931;52.164;5.518;2024-01-30T09:57:29;11.70;93.70
21540;DHT22;10931;52.164;5.518;2024-01-30T09:59:58;10.10;91.50
21540;DHT22;10931;52.164;5.518;2024-01-30T10:02:42;9.20;90.30
21540;DHT22;10931;52.164;5.518;2024-01-30T10:05:14;11.80;92.40
21540;DHT22;10931;52.164;5.518;2024-01-30T10:07:52;12.30;92.30
21540;DHT22;10931;52.164;5.518;2024-01-30T10:10:24;11.70;91.70
21540;DHT22;10931;52.164;5.518;2024-01-30T10:12:49;13.20;93.30
21540;DHT22;10931;52.164;5.518;2024-01-30T10:15:18;15.30;94.10
21540;DHT22;10931;52.164;5.518;2024-01-30T10:17:57;12.40;91.10
21540;DHT22;10931;52.164;5.518;2024-01-30T10:20:34;10.10;91.10
21540;DHT22;10931;52.164;5.518;2024-01-30T10:23:06;12.50;98.00
21540;DHT22;10931;52.164;5.518;2024-01-30T10:25:31;12.30;97.90
21540;DHT22;10931;52.164;5.518;2024-01-30T10:27:59;12.10;92.90
21540;DHT22;10931;52.164;5.518;2024-01-30T10:30:28;12.30;92.60
21540;DHT22;10931;52.164;5.518;2024-01-30T10:32:53;12.30;97.90
21540;DHT22;10931;52.164;5.518;2024-01-30T10:35:22;12.30;93.30
21540;DHT22;10931;52.164;5.518;2024-01-30T10:37:48;11.20;92.30
21540;DHT22;10931;52.164;5.518;2024-01-30T10:40:15;9.80;92.60
21540;DHT22;10931;52.164;5.518;2024-01-30T10:42:45;12.20;91.80
21540;DHT22;10931;52.164;5.518;2024-01-30T10:45:23;12.60;91.70
21540;DHT22;10931;52.164;5.518;2024-01-30T10:47:59;15.60;92.00
21540;DHT22;10931;52.164;5.518;2024-01-30T10:50:35;13.00;91.60
21540;DHT22;10931;52.164;5.518;2024-01-30T10:53:04;14.90;93.20
21540;DHT22;10931;52.164;5.518;2024-01-30T10:55:34;12.80;92.00
21540;DHT22;10931;52.164;5.518;2024-01-30T10:58:01;12.50;91.70
21540;DHT22;10931;52.164;5.518;2024-01-30T11:00:29;11.30;91.20
21540;DHT22;10931;52.164;5.518;2024-01-30T11:03:01;12.20;91.90
21540;DHT22;10931;52.164;5.518;2024-01-30T11:05:40;12.60;91.80
21540;DHT22;10931;52.164;5.518;2024-01-30T11:08:15;12.80;92.40
21540;DHT22;10931;52.164;5.518;2024-01-30T11:11:10;13.70;92.30
21540;DHT22;10931;52.164;5.518;2024-01-30T11:13:45;10.20;90.90
21540;DHT22;10931;52.164;5.518;2024-01-30T11:16:20;13.20;91.40
21540;DHT22;10931;52.164;5.518;2024-01-30T11:18:50;14.50;93.10
21540;DHT22;10931;52.164;5.518;2024-01-30T11:21:45;15.00;93.00
21540;DHT22;10931;52.164;5.518;2024-01-30T11:24:27;11.90;90.80
21540;DHT22;10931;52.164;5.518;2024-01-30T11:27:03;14.40;94.20
21540;DHT22;10931;52.164;5.518;2024-01-30T11:29:35;13.30;91.40
21540;DHT22;10931;52.164;5.518;2024-01-30T11:32:11;15.30;94.70
21540;DHT22;10931;52.164;5.518;2024-01-30T11:34:46;10.80;92.80
21540;DHT22;10931;52.164;5.518;2024-01-30T11:37:21;14.20;92.20
21540;DHT22;10931;52.164;5.518;2024-01-30T11:39:50;15.10;91.70
21540;DHT22;10931;52.164;5.518;2024-01-30T11:42:19;13.00;92.00
21540;DHT22;10931;52.164;5.518;2024-01-30T11:44:52;13.60;92.70
21540;DHT22;10931;52.164;5.518;2024-01-30T11:47:22;14.10;92.30
21540;DHT22;10931;52.164;5.518;2024-01-30T11:49:58;10.00;91.60
21540;DHT22;10931;52.164;5.518;2024-01-30T11:52:33;13.40;92.10
21540;DHT22;10931;52.164;5.518;2024-01-30T11:55:08;13.30;91.80
21540;DHT22;10931;52.164;5.518;2024-01-30T11:57:37;14.30;92.10
21540;DHT22;10931;52.164;5.518;2024-01-30T12:00:04;13.30;93.70
21540;DHT22;10931;52.164;5.518;2024-01-30T12:02:48;13.20;97.60
21540;DHT22;10931;52.164;5.518;2024-01-30T12:05:34;13.50;91.60
21540;DHT22;10931;52.164;5.518;2024-01-30T12:08:05;16.50;91.90
21540;DHT22;10931;52.164;5.518;2024-01-30T12:13:28;10.70;90.90
21540;DHT22;10931;52.164;5.518;2024-01-30T12:15:54;13.70;91.70
21540;DHT22;10931;52.164;5.518;2024-01-30T12:18:20;13.20;94.00
21540;DHT22;10931;52.164;5.518;2024-01-30T12:21:01;10.90;92.60
21540;DHT22;10931;52.164;5.518;2024-01-30T12:23:35;13.00;92.30
21540;DHT22;10931;52.164;5.518;2024-01-30T12:26:06;13.20;91.60
21540;DHT22;10931;52.164;5.518;2024-01-30T12:28:35;13.20;93.80
21540;DHT22;10931;52.164;5.518;2024-01-30T12:31:03;11.10;92.80
21540;DHT22;10931;52.164;5.518;2024-01-30T12:33:36;12.90;92.30
21540;DHT22;10931;52.164;5.518;2024-01-30T12:36:19;13.10;97.70
21540;DHT22;10931;52.164;5.518;2024-01-30T12:38:51;13.40;91.90
21540;DHT22;10931;52.164;5.518;2024-01-30T12:41:48;13.30;91.70
21540;DHT22;10931;52.164;5.518;2024-01-30T12:44:22;11.30;90.40
21540;DHT22;10931;52.164;5.518;2024-01-30T12:46:57;13.10;92.30
21540;DHT22;10931;52.164;5.518;2024-01-30T12:49:26;13.20;90.90
21540;DHT22;10931;52.164;5.518;2024-01-30T12:51:55;13.00;93.20
21540;DHT22;10931;52.164;5.518;2024-01-30T12:54:23;13.10;93.30
21540;DHT22;10931;52.164;5.518;2024-01-30T12:56:52;12.90;92.80
21540;DHT22;10931;52.164;5.518;2024-01-30T12:59:33;13.00;93.90
21540;DHT22;10931;52.164;5.518;2024-01-30T13:02:02;13.10;92.10
21540;DHT22;10931;52.164;5.518;2024-01-30T13:05:03;13.50;93.00
21540;DHT22;10931;52.164;5.518;2024-01-30T13:07:51;12.80;97.80
21540;DHT22;10931;52.164;5.518;2024-01-30T13:10:50;11.60;91.30
21540;DHT22;10931;52.164;5.518;2024-01-30T13:13:25;11.30;90.40
21540;DHT22;10931;52.164;5.518;2024-01-30T13:15:51;12.60;97.70
21540;DHT22;10931;52.164;5.518;2024-01-30T13:18:27;12.50;94.20
21540;DHT22;10931;52.164;5.518;2024-01-30T13:20:58;14.60;92.10
21540;DHT22;10931;52.164;5.518;2024-01-30T13:23:32;12.80;93.10
21540;DHT22;10931;52.164;5.518;2024-01-30T13:26:10;12.60;93.70
21540;DHT22;10931;52.164;5.518;2024-01-30T13:28:41;10.50;91.20
21540;DHT22;10931;52.164;5.518;2024-01-30T13:31:16;13.20;93.10
21540;DHT22;10931;52.164;5.518;2024-01-30T13:33:48;12.60;91.80
21540;DHT22;10931;52.164;5.518;2024-01-30T13:36:27;10.40;90.20
21540;DHT22;10931;52.164;5.518;2024-01-30T13:39:27;10.20;91.20
21540;DHT22;10931;52.164;5.518;2024-01-30T13:41:56;13.20;91.00
21540;DHT22;10931;52.164;5.518;2024-01-30T13:44:24;12.50;97.60
21540;DHT22;10931;52.164;5.518;2024-01-30T13:47:06;10.80;91.00
21540;DHT22;10931;52.164;5.518;2024-01-30T13:49:35;12.40;97.80
21540;DHT22;10931;52.164;5.518;2024-01-30T13:52:03;12.30;91.50
21540;DHT22;10931;52.164;5.518;2024-01-30T13:54:40;12.50;91.60
21540;DHT22;10931;52.164;5.518;2024-01-30T13:57:16;12.60;98.00
21540;DHT22;10931;52.164;5.518;2024-01-30T13:59:53;9.60;91.40
21540;DHT22;10931;52.164;5.518;2024-01-30T14:02:45;12.20;92.70
21540;DHT22;10931;52.164;5.518;2024-01-30T14:05:11;13.00;91.00
21540;DHT22;10931;52.164;5.518;2024-01-30T14:07:46;12.50;94.10
21540;DHT22;10931;52.164;5.518;2024-01-30T14:10:22;12.50;91.60
21540;DHT22;10931;52.164;5.518;2024-01-30T14:12:48;10.00;90.70
21540;DHT22;10931;52.164;5.518;2024-01-30T14:15:16;12.30;92.30
21540;DHT22;10931;52.164;5.518;2024-01-30T14:17:47;12.30;91.90
21540;DHT22;10931;52.164;5.518;2024-01-30T14:20:15;12.10;92.60
21540;DHT22;10931;52.164;5.518;2024-01-30T14:22:47;12.80;91.80
21540;DHT22;10931;52.164;5.518;2024-01-30T14:25:13;13.30;91.10
21540;DHT22;10931;52.164;5.518;2024-01-30T14:27:41;12.00;97.90
21540;DHT22;10931;52.164;5.518;2024-01-30T14:30:10;14.50;93.50
21540;DHT22;10931;52.164;5.518;2024-01-30T14:32:39;11.40;91.00
21540;DHT22;10931;52.164;5.518;2024-01-30T14:35:08;15.80;94.80
21540;DHT22;10931;52.164;5.518;2024-01-30T14:37:44;12.20;93.10
21540;DHT22;10931;52.164;5.518;2024-01-30T14:40:10;12.00;98.10
21540;DHT22;10931;52.164;5.518;2024-01-30T14:42:38;11.90;92.90
21540;DHT22;10931;52.164;5.518;2024-01-30T14:45:06;12.30;92.70
21540;DHT22;10931;52.164;5.518;2024-01-30T14:47:38;9.30;91.50
21540;DHT22;10931;52.164;5.518;2024-01-30T14:50:07;12.30;91.90
21540;DHT22;10931;52.164;5.518;2024-01-30T14:52:33;12.30;93.60
21540;DHT22;10931;52.164;5.518;2024-01-30T14:55:19;13.90;92.00
21540;DHT22;10931;52.164;5.518;2024-01-30T14:57:47;12.00;98.20
21540;DHT22;10931;52.164;5.518;2024-01-30T15:00:21;11.60;93.10
21540;DHT22;10931;52.164;5.518;2024-01-30T15:02:52;11.90;91.30
21540;DHT22;10931;52.164;5.518;2024-01-30T15:05:18;12.00;93.50
21540;DHT22;10931;52.164;5.518;2024-01-30T15:07:44;11.80;93.30
21540;DHT22;10931;52.164;5.518;2024-01-30T15:10:10;11.90;98.20
21540;DHT22;10931;52.164;5.518;2024-01-30T15:12:36;11.80;92.60
21540;DHT22;10931;52.164;5.518;2024-01-30T15:15:03;11.70;91.60
21540;DHT22;10931;52.164;5.518;2024-01-30T15:17:38;12.20;91.80
21540;DHT22;10931;52.164;5.518;2024-01-30T15:20:04;11.80;91.50
21540;DHT22;10931;52.164;5.518;2024-01-30T15:22:30;9.60;92.70
21540;DHT22;10931;52.164;5.518;2024-01-30T15:24:56;11.70;92.00
21540;DHT22;10931;52.164;5.518;2024-01-30T15:27:42;11.70;97.90
21540;DHT22;10931;52.164;5.518;2024-01-30T15:30:33;12.10;98.00
21540;DHT22;10931;52.164;5.518;2024-01-30T15:33:10;10.40;91.70
21540;DHT22;10931;52.164;5.518;2024-01-30T15:35:39;11.80;91.10
21540;DHT22;10931;52.164;5.518;2024-01-30T15:38:05;11.90;93.50
21540;DHT22;10931;52.164;5.518;2024-01-30T15:40:34;11.60;98.20
21540;DHT22;10931;52.164;5.518;2024-01-30T15:43:00;12.00;97.70
21540;DHT22;10931;52.164;5.518;2024-01-30T15:45:28;10.20;91.60
21540;DHT22;10931;52.164;5.518;2024-01-30T15:47:54;11.90;93.00
21540;DHT22;10931;52.164;5.518;2024-01-30T15:50:20;13.90;93.00
21540;DHT22;10931;52.164;5.518;2024-01-30T15:52:46;11.70;92.00
21540;DHT22;10931;52.164;5.518;2024-01-30T15:55:11;12.00;94.00
21540;DHT22;10931;52.164;5.518;2024-01-30T15:57:43;10.80;92.80
21540;DHT22;10931;52.164;5.518;2024-01-30T16:00:11;9.60;90.30
21540;DHT22;10931;52.164;5.518;2024-01-30T16:02:38;11.50;98.30
21540;DHT22;10931;52.164;5.518;2024-01-30T16:05:04;11.60;92.80
21540;DHT22;10931;52.164;5.518;2024-01-30T16:07:29;11.60;93.70
21540;DHT22;10931;52.164;5.518;2024-01-30T16:09:56;12.10;92.80
21540;DHT22;10931;52.164;5.518;2024-01-30T16:12:22;11.30;98.20
21540;DHT22;10931;52.164;5.518;2024-01-30T16:14:48;14.60;93.00
21540;DHT22;10931;52.164;5.518;2024-01-30T16:17:16;11.20;98.10
21540;DHT22;10931;52.164;5.518;2024-01-30T16:19:44;11.50;98.10
21540;DHT22;10931;52.164;5.518;2024-01-30T16:22:10;11.70;98.20
21540;DHT22;10931;52.164;5.518;2024-01-30T16:24:38;11.30;98.10
21540;DHT22;10931;52.164;5.518;2024-01-30T16:27:07;11.20;97.70
21540;DHT22;10931;52.164;5.518;2024-01-30T16:29:33;11.40;98.40
21540;DHT22;10931;52.164;5.518;2024-01-30T16:31:59;11.00;97.80
21540;DHT22;10931;52.164;5.518;2024-01-30T16:34:25;11.30;98.20
21540;DHT22;10931;52.164;5.518;2024-01-30T16:36:53;11.80;98.20
21540;DHT22;10931;52.164;5.518;2024-01-30T16:39:21;11.10;98.10
21540;DHT22;10931;52.164;5.518;2024-01-30T16:41:47;11.50;97.90
21540;DHT22;10931;52.164;5.518;2024-01-30T16:44:13;11.10;97.90
21540;DHT22;10931;52.164;5.518;2024-01-30T16:46:39;11.60;98.10
21540;DHT22;10931;52.164;5.518;2024-01-30T16:49:05;11.10;98.30
21540;DHT22;10931;52.164;5.518;2024-01-30T16:53:56;11.40;91.10
21540;DHT22;10931;52.164;5.518;2024-01-30T16:56:22;11.40;98.10
21540;DHT22;10931;52.164;5.518;2024-01-30T16:58:48;11.00;98.00
21540;DHT22;10931;52.164;5.518;2024-01-30T17:01:14;11.10;97.80
21540;DHT22;10931;52.164;5.518;2024-01-30T17:03:40;9.10;92.20
21540;DHT22;10931;52.164;5.518;2024-01-30T17:06:12;11.40;97.80
21540;DHT22;10931;52.164;5.518;2024-01-30T17:08:38;11.40;98.30
21540;DHT22;10931;52.164;5.518;2024-01-30T17:11:04;11.40;91.80
21540;DHT22;10931;52.164;5.518;2024-01-30T17:13:33;14.00;93.40
21540;DHT22;10931;52.164;5.518;2024-01-30T17:15:59;10.80;98.10
21540;DHT22;10931;52.164;5.518;2024-01-30T17:18:24;10.90;97.80